sensor_id;sensor_type;location;lat;lon;timestamp;temperature;humidity
22908;DHT22;11620;50.050;8.690;2023-04-30T00:01:45;11.30;99.90
22908;DHT22;11620;50.050;8.690;2023-04-30T00:04:31;11.20;99.90
22908;DHT22;11620;50.050;8.690;2023-04-30T00:07:17;11.10;99.90
22908;DHT22;11620;50.050;8.690;2023-04-30T00:10:04;11.10;99.90
22908;DHT22;11620;50.050;8.690;2023-04-30T00:12:51;11.10;99.90
22908;DHT22;11620;50.050;8.690;2023-04-30T00:15:37;11.10;99.90
22908;DHT22;11620;50.050;8.690;2023-04-30T00:18:23;11.10;99.90
22908;DHT22;11620;50.050;8.690;2023-04-30T00:21:10;11.10;99.90
22908;DHT22;11620;50.050;8.690;2023-04-30T00:23:56;11.10;99.90
22908;DHT22;11620;50.050;8.690;2023-04-30T00:26:45;11.10;99.90
22908;DHT22;11620;50.050;8.690;2023-04-30T00:29:31;11.00;99.90
22908;DHT22;11620;50.050;8.690;2023-04-30T00:32:18;11.00;99.90
22908;DHT22;11620;50.050;8.690;2023-04-30T00:35:04;11.00;99.90
22908;DHT22;11620;50.050;8.690;2023-04-30T00:37:51;11.00;99.90
22908;DHT22;11620;50.050;8.690;2023-04-30T00:40:39;10.90;99.90
22908;DHT22;11620;50.050;8.690;2023-04-30T00:43:27;10.90;99.90
22908;DHT22;11620;50.050;8.690;2023-04-30T00:46:13;10.90;99.90
22908;DHT22;11620;50.050;8.690;2023-04-30T00:48:59;10.90;99.90
22908;DHT22;11620;50.050;8.690;2023-04-30T00:51:50;10.90;99.90
22908;DHT22;11620;50.050;8.690;2023-04-30T00:54:37;10.90;99.90
22908;DHT22;11620;50.050;8.690;2023-04-30T00:57:24;10.80;99.90
22908;DHT22;11620;50.050;8.690;2023-04-30T01:00:12;10.80;99.90
22908;DHT22;11620;50.050;8.690;2023-04-30T01:02:59;10.80;99.90
22908;DHT22;11620;50.050;8.690;2023-04-30T01:05:48;10.70;99.90
22908;DHT22;11620;50.050;8.690;2023-04-30T01:08:38;10.70;99.90
22908;DHT22;11620;50.050;8.690;2023-04-30T01:11:27;10.70;99.90
22908;DHT22;11620;50.050;8.690;2023-04-30T01:14:43;10.70;99.90
22908;DHT22;11620;50.050;8.690;2023-04-30T01:17:32;10.70;99.90
22908;DHT22;11620;50.050;8.690;2023-04-30T01:20:19;10.60;99.90
22908;DHT22;11620;50.050;8.690;2023-04-30T01:26:51;10.50;99.90
22908;DHT22;11620;50.050;8.690;2023-04-30T01:29:38;10.50;99.90
22908;DHT22;11620;50.050;8.690;2023-04-30T01:32:27;10.50;99.90
22908;DHT22;11620;50.050;8.690;2023-04-30T01:35:14;10.50;99.90
22908;DHT22;11620;50.050;8.690;2023-04-30T01:41:34;10.40;99.90
22908;DHT22;11620;50.050;8.690;2023-04-30T01:44:41;10.40;99.90
22908;DHT22;11620;50.050;8.690;2023-04-30T01:47:51;10.30;99.90
22908;DHT22;11620;50.050;8.690;2023-04-30T01:50:47;10.30;99.90
22908;DHT22;11620;50.050;8.690;2023-04-30T01:53:43;10.30;99.90
22908;DHT22;11620;50.050;8.690;2023-04-30T01:56:36;10.30;99.90
22908;DHT22;11620;50.050;8.690;2023-04-30T01:59:24;10.20;99.90
22908;DHT22;11620;50.050;8.690;2023-04-30T02:02:11;10.20;99.90
22908;DHT22;11620;50.050;8.690;2023-04-30T02:04:57;10.20;99.90
22908;DHT22;11620;50.050;8.690;2023-04-30T02:07:45;10.10;99.90
22908;DHT22;11620;50.050;8.690;2023-04-30T02:10:32;10.20;99.90
22908;DHT22;11620;50.050;8.690;2023-04-30T02:13:18;10.20;99.90
22908;DHT22;11620;50.050;8.690;2023-04-30T02:16:05;10.20;99.90
22908;DHT22;11620;50.050;8.690;2023-04-30T02:18:51;10.10;99.90
22908;DHT22;11620;50.050;8.690;2023-04-30T02:21:38;10.10;99.90
22908;DHT22;11620;50.050;8.690;2023-04-30T02:24:24;10.10;99.90
22908;DHT22;11620;50.050;8.690;2023-04-30T02:27:10;10.20;99.90
22908;DHT22;11620;50.050;8.690;2023-04-30T02:29:57;10.20;99.90
22908;DHT22;11620;50.050;8.690;2023-04-30T02:32:43;10.10;99.90
22908;DHT22;11620;50.050;8.690;2023-04-30T02:35:30;10.20;99.90
22908;DHT22;11620;50.050;8.690;2023-04-30T02:38:16;10.10;99.90
22908;DHT22;11620;50.050;8.690;2023-04-30T02:41:03;10.10;99.90
22908;DHT22;11620;50.050;8.690;2023-04-30T02:43:49;10.10;99.90
22908;DHT22;11620;50.050;8.690;2023-04-30T02:46:36;10.10;99.90
22908;DHT22;11620;50.050;8.690;2023-04-30T02:49:23;10.10;99.90
22908;DHT22;11620;50.050;8.690;2023-04-30T02:52:09;10.10;99.90
22908;DHT22;11620;50.050;8.690;2023-04-30T02:54:58;10.10;99.90
22908;DHT22;11620;50.050;8.690;2023-04-30T02:57:44;10.10;99.90
22908;DHT22;11620;50.050;8.690;2023-04-30T03:00:30;10.10;99.90
22908;DHT22;11620;50.050;8.690;2023-04-30T03:03:17;10.00;99.90
22908;DHT22;11620;50.050;8.690;2023-04-30T03:06:03;10.00;99.90
22908;DHT22;11620;50.050;8.690;2023-04-30T03:08:49;9.90;99.90
22908;DHT22;11620;50.050;8.690;2023-04-30T03:11:36;10.00;99.90
22908;DHT22;11620;50.050;8.690;2023-04-30T03:14:22;10.00;99.90
22908;DHT22;11620;50.050;8.690;2023-04-30T03:17:08;10.00;99.90
22908;DHT22;11620;50.050;8.690;2023-04-30T03:19:55;10.00;99.90
22908;DHT22;11620;50.050;8.690;2023-04-30T03:22:41;10.00;99.90
22908;DHT22;11620;50.050;8.690;2023-04-30T03:25:28;10.00;99.90
22908;DHT22;11620;50.050;8.690;2023-04-30T03:28:14;10.00;99.90
22908;DHT22;11620;50.050;8.690;2023-04-30T03:31:01;10.00;99.90
22908;DHT22;11620;50.050;8.690;2023-04-30T03:33:50;10.00;99.90
22908;DHT22;11620;50.050;8.690;2023-04-30T03:36:36;10.00;99.90
22908;DHT22;11620;50.050;8.690;2023-04-30T03:39:23;9.90;99.90
22908;DHT22;11620;50.050;8.690;2023-04-30T03:42:09;9.90;99.90
22908;DHT22;11620;50.050;8.690;2023-04-30T03:44:55;9.90;99.90
22908;DHT22;11620;50.050;8.690;2023-04-30T03:47:42;9.90;99.90
22908;DHT22;11620;50.050;8.690;2023-04-30T03:50:28;9.90;99.90
22908;DHT22;11620;50.050;8.690;2023-04-30T03:53:15;9.80;99.90
22908;DHT22;11620;50.050;8.690;2023-04-30T03:56:02;9.90;99.90
22908;DHT22;11620;50.050;8.690;2023-04-30T03:58:48;9.80;99.90
22908;DHT22;11620;50.050;8.690;2023-04-30T04:01:35;9.80;99.90
22908;DHT22;11620;50.050;8.690;2023-04-30T04:04:22;9.70;99.90
22908;DHT22;11620;50.050;8.690;2023-04-30T04:07:08;9.70;99.90
22908;DHT22;11620;50.050;8.690;2023-04-30T04:09:54;9.70;99.90
22908;DHT22;11620;50.050;8.690;2023-04-30T04:12:41;9.60;99.90
22908;DHT22;11620;50.050;8.690;2023-04-30T04:15:27;9.60;99.90
22908;DHT22;11620;50.050;8.690;2023-04-30T04:18:13;9.60;99.90
22908;DHT22;11620;50.050;8.690;2023-04-30T04:20:59;9.60;99.90
22908;DHT22;11620;50.050;8.690;2023-04-30T04:23:49;9.60;99.90
22908;DHT22;11620;50.050;8.690;2023-04-30T04:26:36;9.50;99.90
22908;DHT22;11620;50.050;8.690;2023-04-30T04:29:23;9.50;99.90
22908;DHT22;11620;50.050;8.690;2023-04-30T04:32:09;9.50;99.90
22908;DHT22;11620;50.050;8.690;2023-04-30T04:34:57;9.50;99.90
22908;DHT22;11620;50.050;8.690;2023-04-30T04:37:43;9.50;99.90
22908;DHT22;11620;50.050;8.690;2023-04-30T04:40:29;9.50;99.90
22908;DHT22;11620;50.050;8.690;2023-04-30T04:43:16;9.50;99.90
22908;DHT22;11620;50.050;8.690;2023-04-30T04:46:02;9.40;99.90
22908;DHT22;11620;50.050;8.690;2023-04-30T04:48:49;9.40;99.90
22908;DHT22;11620;50.050;8.690;2023-04-30T04:51:35;9.40;99.90
22908;DHT22;11620;50.050;8.690;2023-04-30T04:54:22;9.40;99.90
22908;DHT22;11620;50.050;8.690;2023-04-30T04:57:08;9.40;99.90
22908;DHT22;11620;50.050;8.690;2023-04-30T04:59:54;9.40;99.90
22908;DHT22;11620;50.050;8.690;2023-04-30T05:02:40;9.40;99.90
22908;DHT22;11620;50.050;8.690;2023-04-30T05:05:27;9.40;99.90
22908;DHT22;11620;50.050;8.690;2023-04-30T05:08:13;9.40;99.90
22908;DHT22;11620;50.050;8.690;2023-04-30T05:11:00;9.40;99.90
22908;DHT22;11620;50.050;8.690;2023-04-30T05:13:46;9.40;99.90
22908;DHT22;11620;50.050;8.690;2023-04-30T05:16:32;9.40;99.90
22908;DHT22;11620;50.050;8.690;2023-04-30T05:19:19;9.40;99.90
22908;DHT22;11620;50.050;8.690;2023-04-30T05:22:05;9.40;99.90
22908;DHT22;11620;50.050;8.690;2023-04-30T05:24:51;9.40;99.90
22908;DHT22;11620;50.050;8.690;2023-04-30T05:27:38;9.40;99.90
22908;DHT22;11620;50.050;8.690;2023-04-30T05:30:24;9.40;99.90
22908;DHT22;11620;50.050;8.690;2023-04-30T05:33:10;9.50;99.90
22908;DHT22;11620;50.050;8.690;2023-04-30T05:35:57;9.40;99.90
22908;DHT22;11620;50.050;8.690;2023-04-30T05:38:45;9.40;99.90
22908;DHT22;11620;50.050;8.690;2023-04-30T05:41:32;9.40;99.90
22908;DHT22;11620;50.050;8.690;2023-04-30T05:44:18;9.40;99.90
22908;DHT22;11620;50.050;8.690;2023-04-30T05:47:04;9.50;99.90
22908;DHT22;11620;50.050;8.690;2023-04-30T05:49:51;9.50;99.90
22908;DHT22;11620;50.050;8.690;2023-04-30T05:52:37;9.50;99.90
22908;DHT22;11620;50.050;8.690;2023-04-30T05:55:23;9.50;99.90
22908;DHT22;11620;50.050;8.690;2023-04-30T05:58:10;9.50;99.90
22908;DHT22;11620;50.050;8.690;2023-04-30T06:00:57;9.50;99.90
22908;DHT22;11620;50.050;8.690;2023-04-30T06:03:44;9.60;99.90
22908;DHT22;11620;50.050;8.690;2023-04-30T06:06:31;9.80;99.90
22908;DHT22;11620;50.050;8.690;2023-04-30T06:09:17;9.90;99.90
22908;DHT22;11620;50.050;8.690;2023-04-30T06:12:06;10.00;99.90
22908;DHT22;11620;50.050;8.690;2023-04-30T06:14:52;10.10;99.90
22908;DHT22;11620;50.050;8.690;2023-04-30T06:17:39;10.20;99.90
22908;DHT22;11620;50.050;8.690;2023-04-30T06:20:25;10.50;99.90
22908;DHT22;11620;50.050;8.690;2023-04-30T06:23:12;10.70;99.90
22908;DHT22;11620;50.050;8.690;2023-04-30T06:25:58;11.00;99.90
22908;DHT22;11620;50.050;8.690;2023-04-30T06:28:45;11.10;99.90
22908;DHT22;11620;50.050;8.690;2023-04-30T06:31:32;11.30;99.90
22908;DHT22;11620;50.050;8.690;2023-04-30T06:34:18;11.50;99.90
22908;DHT22;11620;50.050;8.690;2023-04-30T06:37:05;11.80;99.90
22908;DHT22;11620;50.050;8.690;2023-04-30T06:39:52;12.00;99.90
22908;DHT22;11620;50.050;8.690;2023-04-30T06:42:38;12.20;99.90
22908;DHT22;11620;50.050;8.690;2023-04-30T06:45:24;12.20;99.90
22908;DHT22;11620;50.050;8.690;2023-04-30T06:48:10;12.40;99.90
22908;DHT22;11620;50.050;8.690;2023-04-30T06:50:57;12.60;99.90
22908;DHT22;11620;50.050;8.690;2023-04-30T06:53:44;12.80;99.90
22908;DHT22;11620;50.050;8.690;2023-04-30T06:56:30;12.90;99.90
22908;DHT22;11620;50.050;8.690;2023-04-30T06:59:17;12.90;99.90
22908;DHT22;11620;50.050;8.690;2023-04-30T07:02:03;13.10;99.90
22908;DHT22;11620;50.050;8.690;2023-04-30T07:04:49;13.20;99.90
22908;DHT22;11620;50.050;8.690;2023-04-30T07:07:36;13.40;99.90
22908;DHT22;11620;50.050;8.690;2023-04-30T07:10:22;13.60;99.90
22908;DHT22;11620;50.050;8.690;2023-04-30T07:13:08;13.80;99.90
22908;DHT22;11620;50.050;8.690;2023-04-30T07:15:54;14.00;99.90
22908;DHT22;11620;50.050;8.690;2023-04-30T07:18:41;14.20;99.90
22908;DHT22;11620;50.050;8.690;2023-04-30T07:21:28;14.30;99.90
22908;DHT22;11620;50.050;8.690;2023-04-30T07:24:14;14.50;99.90
22908;DHT22;11620;50.050;8.690;2023-04-30T07:27:00;14.50;99.90
22908;DHT22;11620;50.050;8.690;2023-04-30T07:29:48;14.50;99.90
22908;DHT22;11620;50.050;8.690;2023-04-30T07:32:36;14.50;99.90
22908;DHT22;11620;50.050;8.690;2023-04-30T07:35:22;14.50;99.90
22908;DHT22;11620;50.050;8.690;2023-04-30T07:38:09;14.60;99.90
22908;DHT22;11620;50.050;8.690;2023-04-30T07:40:55;14.90;99.90
22908;DHT22;11620;50.050;8.690;2023-04-30T07:43:42;15.10;99.90
22908;DHT22;11620;50.050;8.690;2023-04-30T07:46:28;15.10;99.90
22908;DHT22;11620;50.050;8.690;2023-04-30T07:49:15;15.30;99.90
22908;DHT22;11620;50.050;8.690;2023-04-30T07:52:01;15.60;99.90
22908;DHT22;11620;50.050;8.690;2023-04-30T07:54:48;15.60;99.90
22908;DHT22;11620;50.050;8.690;2023-04-30T07:57:35;15.70;99.90
22908;DHT22;11620;50.050;8.690;2023-04-30T08:00:21;15.90;99.90
22908;DHT22;11620;50.050;8.690;2023-04-30T08:03:07;16.10;99.90
22908;DHT22;11620;50.050;8.690;2023-04-30T08:05:58;16.30;99.90
22908;DHT22;11620;50.050;8.690;2023-04-30T08:08:49;16.50;99.90
22908;DHT22;11620;50.050;8.690;2023-04-30T08:11:38;16.70;99.90
22908;DHT22;11620;50.050;8.690;2023-04-30T08:14:24;16.80;99.90
22908;DHT22;11620;50.050;8.690;2023-04-30T08:17:10;17.00;99.90
22908;DHT22;11620;50.050;8.690;2023-04-30T08:19:57;17.30;99.90
22908;DHT22;11620;50.050;8.690;2023-04-30T08:22:44;17.40;99.90
22908;DHT22;11620;50.050;8.690;2023-04-30T08:25:31;17.40;99.90
22908;DHT22;11620;50.050;8.690;2023-04-30T08:28:17;17.50;99.90
22908;DHT22;11620;50.050;8.690;2023-04-30T08:31:03;17.70;99.90
22908;DHT22;11620;50.050;8.690;2023-04-30T08:33:50;17.60;99.90
22908;DHT22;11620;50.050;8.690;2023-04-30T08:36:36;17.70;99.90
22908;DHT22;11620;50.050;8.690;2023-04-30T08:39:23;17.80;99.90
22908;DHT22;11620;50.050;8.690;2023-04-30T08:42:12;17.80;99.90
22908;DHT22;11620;50.050;8.690;2023-04-30T08:44:59;18.00;99.90
22908;DHT22;11620;50.050;8.690;2023-04-30T08:47:47;18.20;99.90
22908;DHT22;11620;50.050;8.690;2023-04-30T08:50:33;18.50;99.90
22908;DHT22;11620;50.050;8.690;2023-04-30T08:53:20;18.60;99.90
22908;DHT22;11620;50.050;8.690;2023-04-30T08:56:10;18.80;99.90
22908;DHT22;11620;50.050;8.690;2023-04-30T08:58:56;18.80;99.90
22908;DHT22;11620;50.050;8.690;2023-04-30T09:01:42;18.80;99.90
22908;DHT22;11620;50.050;8.690;2023-04-30T09:04:29;18.80;99.90
22908;DHT22;11620;50.050;8.690;2023-04-30T09:07:17;19.20;99.90
22908;DHT22;11620;50.050;8.690;2023-04-30T09:10:04;19.50;99.90
22908;DHT22;11620;50.050;8.690;2023-04-30T09:13:06;19.70;99.90
22908;DHT22;11620;50.050;8.690;2023-04-30T09:15:53;19.80;99.90
22908;DHT22;11620;50.050;8.690;2023-04-30T09:18:40;19.90;99.90
22908;DHT22;11620;50.050;8.690;2023-04-30T09:21:36;19.90;99.90
22908;DHT22;11620;50.050;8.690;2023-04-30T09:24:23;20.20;99.90
22908;DHT22;11620;50.050;8.690;2023-04-30T09:27:20;19.80;99.90
22908;DHT22;11620;50.050;8.690;2023-04-30T09:30:07;19.80;99.90
22908;DHT22;11620;50.050;8.690;2023-04-30T09:32:54;20.00;99.90
22908;DHT22;11620;50.050;8.690;2023-04-30T09:35:41;20.10;99.90
22908;DHT22;11620;50.050;8.690;2023-04-30T09:38:29;20.40;99.90
22908;DHT22;11620;50.050;8.690;2023-04-30T09:41:26;20.50;99.90
22908;DHT22;11620;50.050;8.690;2023-04-30T09:44:26;20.10;99.90
22908;DHT22;11620;50.050;8.690;2023-04-30T09:47:16;20.20;99.90
22908;DHT22;11620;50.050;8.690;2023-04-30T09:50:02;20.50;99.90
22908;DHT22;11620;50.050;8.690;2023-04-30T09:52:52;20.70;99.90
22908;DHT22;11620;50.050;8.690;2023-04-30T09:55:45;20.90;99.90
22908;DHT22;11620;50.050;8.690;2023-04-30T09:58:35;21.20;99.90
22908;DHT22;11620;50.050;8.690;2023-04-30T10:01:26;21.50;99.90
22908;DHT22;11620;50.050;8.690;2023-04-30T10:04:14;21.60;99.90
22908;DHT22;11620;50.050;8.690;2023-04-30T10:07:07;21.70;99.90
22908;DHT22;11620;50.050;8.690;2023-04-30T10:09:57;21.40;99.90
22908;DHT22;11620;50.050;8.690;2023-04-30T10:12:49;21.40;99.90
22908;DHT22;11620;50.050;8.690;2023-04-30T10:15:47;20.80;99.90
22908;DHT22;11620;50.050;8.690;2023-04-30T10:18:38;20.30;99.90
22908;DHT22;11620;50.050;8.690;2023-04-30T10:21:25;19.70;99.90
22908;DHT22;11620;50.050;8.690;2023-04-30T10:24:13;20.10;99.90
22908;DHT22;11620;50.050;8.690;2023-04-30T10:27:00;20.60;99.90
22908;DHT22;11620;50.050;8.690;2023-04-30T10:29:46;20.70;99.90
22908;DHT22;11620;50.050;8.690;2023-04-30T10:32:40;20.40;99.90
22908;DHT22;11620;50.050;8.690;2023-04-30T10:35:34;20.00;99.90
22908;DHT22;11620;50.050;8.690;2023-04-30T10:38:26;19.70;99.90
22908;DHT22;11620;50.050;8.690;2023-04-30T10:41:13;19.90;99.90
22908;DHT22;11620;50.050;8.690;2023-04-30T10:44:01;20.00;99.90
22908;DHT22;11620;50.050;8.690;2023-04-30T10:46:47;20.30;99.90
22908;DHT22;11620;50.050;8.690;2023-04-30T10:49:34;20.60;99.90
22908;DHT22;11620;50.050;8.690;2023-04-30T10:52:28;21.10;99.90
22908;DHT22;11620;50.050;8.690;2023-04-30T10:55:16;21.40;99.90
22908;DHT22;11620;50.050;8.690;2023-04-30T10:58:22;21.60;99.90
22908;DHT22;11620;50.050;8.690;2023-04-30T11:04:10;22.00;99.90
22908;DHT22;11620;50.050;8.690;2023-04-30T11:07:09;22.00;99.90
22908;DHT22;11620;50.050;8.690;2023-04-30T11:09:56;22.20;99.90
22908;DHT22;11620;50.050;8.690;2023-04-30T11:12:50;22.20;99.90
22908;DHT22;11620;50.050;8.690;2023-04-30T11:15:40;21.80;99.90
22908;DHT22;11620;50.050;8.690;2023-04-30T11:18:27;21.20;99.90
22908;DHT22;11620;50.050;8.690;2023-04-30T11:21:13;21.10;99.90
22908;DHT22;11620;50.050;8.690;2023-04-30T11:24:03;21.30;99.90
22908;DHT22;11620;50.050;8.690;2023-04-30T11:27:11;21.60;99.90
22908;DHT22;11620;50.050;8.690;2023-04-30T11:29:58;21.80;99.90
22908;DHT22;11620;50.050;8.690;2023-04-30T11:32:46;21.80;99.90
22908;DHT22;11620;50.050;8.690;2023-04-30T11:35:33;21.40;99.90
22908;DHT22;11620;50.050;8.690;2023-04-30T11:38:25;20.80;99.90
22908;DHT22;11620;50.050;8.690;2023-04-30T11:41:12;20.50;99.90
22908;DHT22;11620;50.050;8.690;2023-04-30T11:43:58;20.80;99.90
22908;DHT22;11620;50.050;8.690;2023-04-30T11:46:45;21.20;99.90
22908;DHT22;11620;50.050;8.690;2023-04-30T11:49:31;21.90;99.90
22908;DHT22;11620;50.050;8.690;2023-04-30T11:52:20;22.20;99.90
22908;DHT22;11620;50.050;8.690;2023-04-30T11:55:15;22.10;99.90
22908;DHT22;11620;50.050;8.690;2023-04-30T11:58:01;22.30;99.90
22908;DHT22;11620;50.050;8.690;2023-04-30T12:00:49;22.80;99.90
22908;DHT22;11620;50.050;8.690;2023-04-30T12:03:45;23.10;99.90
22908;DHT22;11620;50.050;8.690;2023-04-30T12:06:31;23.20;99.90
22908;DHT22;11620;50.050;8.690;2023-04-30T12:09:18;22.70;99.90
22908;DHT22;11620;50.050;8.690;2023-04-30T12:12:04;22.00;99.90
22908;DHT22;11620;50.050;8.690;2023-04-30T12:14:51;22.10;99.90
22908;DHT22;11620;50.050;8.690;2023-04-30T12:17:37;22.00;99.90
22908;DHT22;11620;50.050;8.690;2023-04-30T12:20:25;22.30;99.90
22908;DHT22;11620;50.050;8.690;2023-04-30T12:23:13;22.20;99.90
22908;DHT22;11620;50.050;8.690;2023-04-30T12:25:59;22.00;99.90
22908;DHT22;11620;50.050;8.690;2023-04-30T12:28:47;21.90;99.90
22908;DHT22;11620;50.050;8.690;2023-04-30T12:31:33;21.60;99.90
22908;DHT22;11620;50.050;8.690;2023-04-30T12:34:25;21.70;99.90
22908;DHT22;11620;50.050;8.690;2023-04-30T12:37:14;22.00;99.90
22908;DHT22;11620;50.050;8.690;2023-04-30T12:40:02;22.40;99.90
22908;DHT22;11620;50.050;8.690;2023-04-30T12:42:48;22.30;99.90
22908;DHT22;11620;50.050;8.690;2023-04-30T12:48:43;21.70;99.90
22908;DHT22;11620;50.050;8.690;2023-04-30T12:51:33;21.70;99.90
22908;DHT22;11620;50.050;8.690;2023-04-30T12:54:24;21.90;99.90
22908;DHT22;11620;50.050;8.690;2023-04-30T12:57:11;22.30;99.90
22908;DHT22;11620;50.050;8.690;2023-04-30T12:59:58;22.30;99.90
22908;DHT22;11620;50.050;8.690;2023-04-30T13:02:45;22.20;99.90
22908;DHT22;11620;50.050;8.690;2023-04-30T13:05:31;22.40;99.90
22908;DHT22;11620;50.050;8.690;2023-04-30T13:08:18;22.30;99.90
22908;DHT22;11620;50.050;8.690;2023-04-30T13:11:05;22.00;99.90
22908;DHT22;11620;50.050;8.690;2023-04-30T13:13:52;21.80;99.90
22908;DHT22;11620;50.050;8.690;2023-04-30T13:16:40;21.50;99.90
22908;DHT22;11620;50.050;8.690;2023-04-30T13:19:26;21.20;99.90
22908;DHT22;11620;50.050;8.690;2023-04-30T13:22:13;21.10;99.90
22908;DHT22;11620;50.050;8.690;2023-04-30T13:24:59;20.70;99.90
22908;DHT22;11620;50.050;8.690;2023-04-30T13:27:45;20.50;99.90
22908;DHT22;11620;50.050;8.690;2023-04-30T13:30:32;20.20;99.90
22908;DHT22;11620;50.050;8.690;2023-04-30T13:33:19;20.20;99.90
22908;DHT22;11620;50.050;8.690;2023-04-30T13:36:06;20.20;99.90
22908;DHT22;11620;50.050;8.690;2023-04-30T13:38:53;20.20;99.90
22908;DHT22;11620;50.050;8.690;2023-04-30T13:41:40;20.30;99.90
22908;DHT22;11620;50.050;8.690;2023-04-30T13:44:26;20.40;99.90
22908;DHT22;11620;50.050;8.690;2023-04-30T13:47:13;20.50;99.90
22908;DHT22;11620;50.050;8.690;2023-04-30T13:50:01;20.80;99.90
22908;DHT22;11620;50.050;8.690;2023-04-30T13:52:48;21.20;99.90
22908;DHT22;11620;50.050;8.690;2023-04-30T13:55:34;21.40;99.90
22908;DHT22;11620;50.050;8.690;2023-04-30T13:58:20;21.10;99.90
22908;DHT22;11620;50.050;8.690;2023-04-30T14:01:07;20.80;99.90
22908;DHT22;11620;50.050;8.690;2023-04-30T14:03:54;20.60;99.90
22908;DHT22;11620;50.050;8.690;2023-04-30T14:06:40;20.40;99.90
22908;DHT22;11620;50.050;8.690;2023-04-30T14:09:27;20.30;99.90
22908;DHT22;11620;50.050;8.690;2023-04-30T14:12:14;20.30;99.90
22908;DHT22;11620;50.050;8.690;2023-04-30T14:15:00;20.30;99.90
22908;DHT22;11620;50.050;8.690;2023-04-30T14:17:47;20.40;99.90
22908;DHT22;11620;50.050;8.690;2023-04-30T14:20:33;20.50;99.90
22908;DHT22;11620;50.050;8.690;2023-04-30T14:23:19;20.50;99.90
22908;DHT22;11620;50.050;8.690;2023-04-30T14:26:06;20.50;99.90
22908;DHT22;11620;50.050;8.690;2023-04-30T14:28:52;20.20;99.90
22908;DHT22;11620;50.050;8.690;2023-04-30T14:31:38;20.10;99.90
22908;DHT22;11620;50.050;8.690;2023-04-30T14:34:25;19.90;99.90
22908;DHT22;11620;50.050;8.690;2023-04-30T14:37:12;19.70;99.90
22908;DHT22;11620;50.050;8.690;2023-04-30T14:39:59;19.70;99.90
22908;DHT22;11620;50.050;8.690;2023-04-30T14:42:46;19.60;99.90
22908;DHT22;11620;50.050;8.690;2023-04-30T14:45:36;19.70;99.90
22908;DHT22;11620;50.050;8.690;2023-04-30T14:48:22;19.90;99.90
22908;DHT22;11620;50.050;8.690;2023-04-30T14:51:08;19.90;99.90
22908;DHT22;11620;50.050;8.690;2023-04-30T14:53:55;20.20;99.90
22908;DHT22;11620;50.050;8.690;2023-04-30T14:56:42;20.30;99.90
22908;DHT22;11620;50.050;8.690;2023-04-30T14:59:29;20.40;99.90
22908;DHT22;11620;50.050;8.690;2023-04-30T15:02:16;20.10;99.90
22908;DHT22;11620;50.050;8.690;2023-04-30T15:05:03;20.00;99.90
22908;DHT22;11620;50.050;8.690;2023-04-30T15:07:50;19.90;99.90
22908;DHT22;11620;50.050;8.690;2023-04-30T15:10:37;19.80;99.90
22908;DHT22;11620;50.050;8.690;2023-04-30T15:13:23;19.90;99.90
22908;DHT22;11620;50.050;8.690;2023-04-30T15:16:10;20.00;99.90
22908;DHT22;11620;50.050;8.690;2023-04-30T15:18:56;20.00;99.90
22908;DHT22;11620;50.050;8.690;2023-04-30T15:21:43;20.00;99.90
22908;DHT22;11620;50.050;8.690;2023-04-30T15:24:30;20.00;99.90
22908;DHT22;11620;50.050;8.690;2023-04-30T15:27:16;20.00;99.90
22908;DHT22;11620;50.050;8.690;2023-04-30T15:30:04;19.90;99.90
22908;DHT22;11620;50.050;8.690;2023-04-30T15:32:51;19.70;99.90
22908;DHT22;11620;50.050;8.690;2023-04-30T15:35:38;19.70;99.90
22908;DHT22;11620;50.050;8.690;2023-04-30T15:38:04;19.50;99.90
22908;DHT22;11620;50.050;8.690;2023-04-30T15:40:49;19.40;99.90
22908;DHT22;11620;50.050;8.690;2023-04-30T15:43:35;19.50;99.90
22908;DHT22;11620;50.050;8.690;2023-04-30T15:46:22;19.50;99.90
22908;DHT22;11620;50.050;8.690;2023-04-30T15:49:08;19.60;99.90
22908;DHT22;11620;50.050;8.690;2023-04-30T15:51:55;19.50;99.90
22908;DHT22;11620;50.050;8.690;2023-04-30T15:54:41;19.50;99.90
22908;DHT22;11620;50.050;8.690;2023-04-30T15:57:28;19.50;99.90
22908;DHT22;11620;50.050;8.690;2023-04-30T16:00:14;19.50;99.90
22908;DHT22;11620;50.050;8.690;2023-04-30T16:03:01;19.50;99.90
22908;DHT22;11620;50.050;8.690;2023-04-30T16:05:47;19.40;99.90
22908;DHT22;11620;50.050;8.690;2023-04-30T16:08:34;19.30;99.90
22908;DHT22;11620;50.050;8.690;2023-04-30T16:11:21;19.00;99.90
22908;DHT22;11620;50.050;8.690;2023-04-30T16:14:09;18.90;99.90
22908;DHT22;11620;50.050;8.690;2023-04-30T16:16:57;18.90;99.90
22908;DHT22;11620;50.050;8.690;2023-04-30T16:19:43;18.80;99.90
22908;DHT22;11620;50.050;8.690;2023-04-30T16:22:29;18.90;99.90
22908;DHT22;11620;50.050;8.690;2023-04-30T16:25:16;19.00;99.90
22908;DHT22;11620;50.050;8.690;2023-04-30T16:28:02;18.90;99.90
22908;DHT22;11620;50.050;8.690;2023-04-30T16:30:48;18.80;99.90
22908;DHT22;11620;50.050;8.690;2023-04-30T16:33:35;18.80;99.90
22908;DHT22;11620;50.050;8.690;2023-04-30T16:36:21;18.80;99.90
22908;DHT22;11620;50.050;8.690;2023-04-30T16:39:07;18.70;99.90
22908;DHT22;11620;50.050;8.690;2023-04-30T16:41:54;18.80;99.90
22908;DHT22;11620;50.050;8.690;2023-04-30T16:44:40;18.60;99.90
22908;DHT22;11620;50.050;8.690;2023-04-30T16:47:27;18.60;99.90
22908;DHT22;11620;50.050;8.690;2023-04-30T16:50:13;18.50;99.90
22908;DHT22;11620;50.050;8.690;2023-04-30T16:53:00;18.50;99.90
22908;DHT22;11620;50.050;8.690;2023-04-30T16:55:46;18.50;99.90
22908;DHT22;11620;50.050;8.690;2023-04-30T16:58:33;18.40;99.90
22908;DHT22;11620;50.050;8.690;2023-04-30T17:01:19;18.30;99.90
22908;DHT22;11620;50.050;8.690;2023-04-30T17:04:06;18.20;99.90
22908;DHT22;11620;50.050;8.690;2023-04-30T17:06:52;18.20;99.90
22908;DHT22;11620;50.050;8.690;2023-04-30T17:09:38;18.20;99.90
22908;DHT22;11620;50.050;8.690;2023-04-30T17:12:26;18.10;99.90
22908;DHT22;11620;50.050;8.690;2023-04-30T17:15:13;18.10;99.90
22908;DHT22;11620;50.050;8.690;2023-04-30T17:18:00;18.20;99.90
22908;DHT22;11620;50.050;8.690;2023-04-30T17:20:46;18.10;99.90
22908;DHT22;11620;50.050;8.690;2023-04-30T17:23:34;18.00;99.90
22908;DHT22;11620;50.050;8.690;2023-04-30T17:26:21;17.90;99.90
22908;DHT22;11620;50.050;8.690;2023-04-30T17:29:08;17.90;99.90
22908;DHT22;11620;50.050;8.690;2023-04-30T17:31:55;17.90;99.90
22908;DHT22;11620;50.050;8.690;2023-04-30T17:34:41;17.90;99.90
22908;DHT22;11620;50.050;8.690;2023-04-30T17:37:27;17.90;99.90
22908;DHT22;11620;50.050;8.690;2023-04-30T17:40:14;17.80;99.90
22908;DHT22;11620;50.050;8.690;2023-04-30T17:43:00;17.70;99.90
22908;DHT22;11620;50.050;8.690;2023-04-30T17:45:46;17.70;99.90
22908;DHT22;11620;50.050;8.690;2023-04-30T17:48:36;17.70;99.90
22908;DHT22;11620;50.050;8.690;2023-04-30T17:51:22;17.60;99.90
22908;DHT22;11620;50.050;8.690;2023-04-30T17:54:08;17.60;99.90